createdAt,value
2017-08-28T00:01:50.913Z,101542.56
2017-08-28T00:06:52.877Z,101534.45
2017-08-28T00:11:55.305Z,101538.55
2017-08-28T00:16:57.900Z,101536.95
2017-08-28T00:21:59.911Z,101533.83
2017-08-28T00:27:02.223Z,101544.03
2017-08-28T00:32:05.799Z,101536.51
2017-08-28T00:37:08.422Z,101530.62
2017-08-28T00:42:12.269Z,101533.39
2017-08-28T00:47:14.629Z,101534.05
2017-08-28T00:52:17.166Z,101525.23
2017-08-28T00:57:19.145Z,101527.17
2017-08-28T01:02:21.611Z,101540.45
2017-08-28T01:07:23.618Z,101543.86
2017-08-28T01:12:25.960Z,101539.50
2017-08-28T01:17:28.616Z,101530.48
2017-08-28T01:22:31.288Z,101528.39
2017-08-28T01:27:34.185Z,101528.82
2017-08-28T01:32:36.827Z,101519.70
2017-08-28T01:37:39.608Z,101523.42
2017-08-28T01:42:41.614Z,101527.86
2017-08-28T01:47:43.890Z,101514.52
2017-08-28T01:52:46.755Z,101524.86
2017-08-28T01:57:49.427Z,101520.16
2017-08-28T02:02:51.900Z,101523.01
2017-08-28T02:07:54.564Z,101530.34
2017-08-28T02:12:57.371Z,101537.63
2017-08-28T02:18:00.149Z,101544.17
2017-08-28T02:23:04.030Z,101533.38
2017-08-28T02:28:06.883Z,101528.81
2017-08-28T02:33:08.949Z,101532.88
2017-08-28T02:38:11.830Z,101535.79
2017-08-28T02:43:14.030Z,101542.17
2017-08-28T02:48:16.090Z,101527.42
2017-08-28T02:53:18.622Z,101523.59
2017-08-28T02:58:22.493Z,101519.70
2017-08-28T03:03:27.112Z,101518.81
2017-08-28T03:08:33.256Z,101517.08
2017-08-28T03:13:37.684Z,101511.66
2017-08-28T03:18:40.526Z,101513.28
2017-08-28T03:23:44.895Z,101514.98
2017-08-28T03:28:50.938Z,101520.02
2017-08-28T03:33:54.292Z,101516.58
2017-08-28T03:39:03.187Z,101512.20
2017-08-28T03:44:09.755Z,101508.95
2017-08-28T03:49:16.268Z,101509.58
2017-08-28T03:54:23.328Z,101510.15
2017-08-28T03:59:29.831Z,101502.52
2017-08-28T04:04:34.056Z,101513.72
2017-08-28T04:15:01.809Z,101518.79
2017-08-28T04:20:06.105Z,101512.03
2017-08-28T04:25:13.865Z,101506.77
2017-08-28T04:30:19.252Z,101515.64
2017-08-28T04:35:25.682Z,101502.14
2017-08-28T04:40:32.842Z,101502.83
2017-08-28T04:45:36.322Z,101514.23
2017-08-28T04:50:40.234Z,101523.13
2017-08-28T04:55:43.268Z,101529.58
2017-08-28T05:00:46.071Z,101538.07
2017-08-28T05:05:49.485Z,101536.75
2017-08-28T05:10:52.424Z,101541.53
2017-08-28T05:15:55.415Z,101535.67
2017-08-28T05:20:58.181Z,101537.55
2017-08-28T05:26:01.074Z,101535.08
2017-08-28T05:31:04.040Z,101536.91
2017-08-28T05:36:09.218Z,101535.20
2017-08-28T05:41:12.124Z,101538.22
2017-08-28T05:46:14.951Z,101549.64
2017-08-28T05:51:17.747Z,101555.81
2017-08-28T05:56:20.588Z,101548.53
2017-08-28T06:01:23.425Z,101544.01
2017-08-28T06:06:26.265Z,101546.06
2017-08-28T06:11:29.091Z,101553.72
2017-08-28T06:16:31.937Z,101554.98
2017-08-28T06:21:34.800Z,101557.92
2017-08-28T06:26:37.645Z,101549.88
2017-08-28T06:31:40.515Z,101550.25
2017-08-28T06:36:43.688Z,101552.09
2017-08-28T06:41:46.461Z,101557.66
2017-08-28T06:46:50.080Z,101558.89
2017-08-28T06:51:52.114Z,101559.84
2017-08-28T06:57:03.932Z,101562.73
2017-08-28T07:02:11.994Z,101573.64
2017-08-28T07:07:26.175Z,101580.62
2017-08-28T07:12:33.081Z,101576.98
2017-08-28T07:17:39.567Z,101577.36
2017-08-28T07:22:44.709Z,101569.19
2017-08-28T07:27:49.710Z,101578.00
2017-08-28T07:38:08.435Z,101567.91
2017-08-28T07:43:11.574Z,101582.31
2017-08-28T07:48:13.635Z,101585.52
2017-08-28T07:53:15.615Z,101576.42
2017-08-28T07:58:17.569Z,101576.67
2017-08-28T08:03:19.584Z,101582.17
2017-08-28T08:08:21.578Z,101584.12
2017-08-28T08:13:23.589Z,101592.34
2017-08-28T08:18:25.675Z,101588.81
2017-08-28T08:23:27.710Z,101583.16
2017-08-28T08:28:29.705Z,101585.80
2017-08-28T08:39:07.688Z,101587.28
2017-08-28T08:44:09.885Z,101586.19
2017-08-28T08:49:11.855Z,101588.94
2017-08-28T08:54:13.819Z,101597.13
2017-08-28T08:59:15.822Z,101588.84
2017-08-28T09:04:17.772Z,101591.06
2017-08-28T09:09:19.717Z,101593.14
2017-08-28T09:14:21.646Z,101590.33
2017-08-28T09:19:24.736Z,101592.84
2017-08-28T09:24:26.662Z,101593.56
2017-08-28T09:29:28.563Z,101596.74
2017-08-28T09:34:30.504Z,101594.69
2017-08-28T09:39:32.444Z,101592.97
2017-08-28T09:44:34.420Z,101589.37
2017-08-28T09:49:36.339Z,101581.03
2017-08-28T09:54:38.348Z,101584.75
2017-08-28T09:59:40.352Z,101580.86
2017-08-28T10:04:42.296Z,101581.64
2017-08-28T10:09:44.452Z,101584.93
2017-08-28T10:14:46.431Z,101576.84
2017-08-28T10:19:48.414Z,101572.86
2017-08-28T10:24:50.550Z,101571.59
2017-08-28T10:29:52.556Z,101558.58
2017-08-28T10:34:54.476Z,101571.01
2017-08-28T10:39:56.443Z,101562.12
2017-08-28T10:44:58.522Z,101557.45
2017-08-28T10:50:00.970Z,101564.45
2017-08-28T10:55:03.307Z,101564.49
2017-08-28T11:00:05.272Z,101554.46
2017-08-28T11:05:07.295Z,101555.49
2017-08-28T11:10:09.240Z,101553.30
2017-08-28T11:15:11.299Z,101542.45
2017-08-28T11:20:13.249Z,101551.11
2017-08-28T11:25:15.203Z,101549.72
2017-08-28T11:30:17.183Z,101546.48
2017-08-28T11:35:21.695Z,101552.72
2017-08-28T11:40:26.456Z,101545.20
2017-08-28T11:45:28.422Z,101543.28
2017-08-28T11:50:35.654Z,101526.16
2017-08-28T11:55:37.890Z,101530.39
2017-08-28T12:00:44.861Z,101534.75
2017-08-28T12:05:47.325Z,101531.42
2017-08-28T12:10:49.435Z,101531.52
2017-08-28T12:15:51.649Z,101524.98
2017-08-28T12:20:53.808Z,101521.09
2017-08-28T12:26:02.026Z,101514.01
2017-08-28T12:31:04.639Z,101516.00
2017-08-28T12:36:06.974Z,101510.44
2017-08-28T12:41:08.957Z,101504.72
2017-08-28T12:46:10.939Z,101499.54
2017-08-28T12:51:12.871Z,101495.72
2017-08-28T12:56:14.862Z,101493.23
2017-08-28T13:01:20.457Z,101505.20
2017-08-28T13:06:24.156Z,101497.30
2017-08-28T13:11:26.367Z,101493.23
2017-08-28T13:16:29.069Z,101495.67
2017-08-28T13:21:31.417Z,101489.39
2017-08-28T13:26:37.485Z,101482.50
2017-08-28T13:31:39.749Z,101477.89
2017-08-28T13:36:41.692Z,101473.41
2017-08-28T13:41:43.612Z,101464.95
2017-08-28T13:46:45.579Z,101468.21
2017-08-28T13:51:47.535Z,101466.99
2017-08-28T13:56:49.500Z,101461.75
2017-08-28T14:01:51.423Z,101459.12
2017-08-28T14:06:53.467Z,101458.35
2017-08-28T14:11:55.419Z,101460.34
2017-08-28T14:16:57.367Z,101458.58
2017-08-28T14:21:59.294Z,101448.70
2017-08-28T14:27:01.276Z,101448.50
2017-08-28T14:32:03.271Z,101443.02
2017-08-28T14:37:05.234Z,101439.69
2017-08-28T14:42:07.161Z,101436.15
2017-08-28T14:47:09.406Z,101430.74
2017-08-28T14:52:11.320Z,101434.33
2017-08-28T14:57:13.252Z,101432.31
2017-08-28T15:02:15.199Z,101431.61
2017-08-28T15:07:17.233Z,101427.78
2017-08-28T15:12:20.667Z,101420.05
2017-08-28T15:17:22.754Z,101419.36
2017-08-28T15:22:24.703Z,101412.41
2017-08-28T15:27:26.967Z,101414.45
2017-08-28T15:32:28.916Z,101397.54
2017-08-28T15:37:30.832Z,101401.38
2017-08-28T15:42:32.750Z,101391.45
2017-08-28T15:47:34.686Z,101378.75
2017-08-28T15:52:37.423Z,101368.20
2017-08-28T15:57:39.399Z,101374.02
2017-08-28T16:02:41.291Z,101377.07
2017-08-28T16:07:43.255Z,101365.91
2017-08-28T16:12:45.520Z,101364.96
2017-08-28T16:17:47.548Z,101357.30
2017-08-28T16:22:49.471Z,101355.05
2017-08-28T16:27:51.458Z,101354.04
2017-08-28T16:32:53.426Z,101351.58
2017-08-28T16:37:55.421Z,101351.45
2017-08-28T16:42:57.965Z,101348.48
2017-08-28T16:48:00.008Z,101338.55
2017-08-28T16:53:01.959Z,101317.74
2017-08-28T16:58:03.880Z,101343.08
2017-08-28T17:03:05.821Z,101344.91
2017-08-28T17:08:07.746Z,101350.20
2017-08-28T17:13:10.132Z,101357.31
2017-08-28T17:18:12.288Z,101359.25
2017-08-28T17:23:14.229Z,101357.36
2017-08-28T17:33:34.165Z,101364.88
2017-08-28T17:38:43.186Z,101367.73
2017-08-28T17:43:49.124Z,101369.88
2017-08-28T17:48:56.705Z,101365.81
2017-08-28T17:54:04.081Z,101363.74
2017-08-28T17:59:11.546Z,101346.58
2017-08-28T18:04:14.598Z,101366.52
2017-08-28T18:09:19.712Z,101374.59
2017-08-28T18:14:23.367Z,101362.86
2017-08-28T18:19:25.398Z,101369.71
2017-08-28T18:24:27.921Z,101368.07
2017-08-28T18:29:29.924Z,101368.61
2017-08-28T18:34:36.513Z,101374.67
2017-08-28T18:39:38.746Z,101375.27
2017-08-28T18:44:42.030Z,101368.50
2017-08-28T18:49:45.325Z,101381.72
2017-08-28T18:54:48.487Z,101382.34
2017-08-28T18:59:51.652Z,101385.05
2017-08-28T19:04:55.027Z,101385.84
2017-08-28T19:09:58.317Z,101377.52
2017-08-28T19:15:01.662Z,101386.94
2017-08-28T19:20:05.994Z,101386.10
2017-08-28T19:25:10.638Z,101391.36
2017-08-28T19:30:15.932Z,101389.02
2017-08-28T19:35:21.794Z,101388.34
2017-08-28T19:40:28.553Z,101383.98
2017-08-28T19:45:31.954Z,101387.63
2017-08-28T19:50:35.613Z,101385.98
2017-08-28T19:55:39.623Z,101386.45
2017-08-28T20:00:44.250Z,101387.05
2017-08-28T20:05:49.236Z,101383.16
2017-08-28T20:10:52.401Z,101394.67
2017-08-28T20:15:55.558Z,101393.83
2017-08-28T20:20:58.875Z,101390.73
2017-08-28T20:26:02.022Z,101385.52
2017-08-28T20:31:05.184Z,101381.72
2017-08-28T20:36:08.400Z,101380.09
2017-08-28T20:41:11.584Z,101370.67
2017-08-28T20:46:14.852Z,101365.92
2017-08-28T20:51:18.152Z,101362.53
2017-08-28T20:56:21.407Z,101357.28
2017-08-28T21:01:24.555Z,101352.31
2017-08-28T21:06:27.759Z,101361.20
2017-08-28T21:11:30.913Z,101359.32
2017-08-28T21:16:32.899Z,101356.41
2017-08-28T21:21:34.871Z,101364.42
2017-08-28T21:26:37.191Z,101367.02
2017-08-28T21:31:39.137Z,101368.30
2017-08-28T21:36:41.501Z,101359.77
2017-08-28T21:41:43.496Z,101353.91
2017-08-28T21:46:45.903Z,101348.62
2017-08-28T21:51:47.831Z,101341.14
2017-08-28T21:56:49.776Z,101336.59
2017-08-28T22:01:51.863Z,101329.80
2017-08-28T22:06:53.787Z,101322.70
2017-08-28T22:11:56.043Z,101323.13
2017-08-28T22:16:59.412Z,101314.87
2017-08-28T22:22:01.447Z,101306.80
2017-08-28T22:27:03.420Z,101304.20
2017-08-28T22:32:05.346Z,101297.72
2017-08-28T22:37:07.314Z,101299.20
2017-08-28T22:42:09.317Z,101291.37
2017-08-28T22:47:11.323Z,101291.37
2017-08-28T22:52:13.361Z,101291.78
2017-08-28T22:57:15.987Z,101284.42
2017-08-28T23:02:18.638Z,101286.73
2017-08-28T23:07:21.233Z,101270.95
2017-08-28T23:12:23.935Z,101266.42
2017-08-28T23:17:25.893Z,101256.91
2017-08-28T23:22:27.983Z,101252.50
2017-08-28T23:27:29.898Z,101248.97
2017-08-28T23:32:32.264Z,101249.83
2017-08-28T23:37:34.505Z,101266.02
2017-08-28T23:42:36.487Z,101259.56
2017-08-28T23:47:38.434Z,101257.69
2017-08-28T23:52:40.991Z,101253.55
2017-08-28T23:57:43.199Z,101249.92
